TRINITY LAKE (CLE)

Elevation: 2370' · TRINITY R basin · Operator: US Bureau of Reclamation

Provisional data, subject to change.
Query executed Tuesday at 15:11:17   clock

Select a sensor type for a plot of data.
Note: Reservoir Flows are daily averages.

Earlier

Date RES ELE    STORAGE    RES CHG    OUTFLOW    INFLOW    EVAP    FNF    RIV REL    PPT INC    SPILL    DIS PWR   
 FEET   AF   AF   CFS   CFS   CFS   CFS   CFS   INCHES   CFS   CFS  
05/30/2016 2293.18 1383079 0 3344 1485 94 3438 0 0.00 0 3344
05/31/2016 2292.89 1379782 0 3017 1428 73 3091 0 0.00 0 3017
06/01/2016 2292.42 1374460 -15691 3512 922 93 922 157 0.00 0 3355
06/02/2016 2292.12 1371062 -3171 3264 1661 110 1661 0 0.00 0 3264
06/03/2016 2291.67 1365988 -3171 3508 1030 80 1030 266 0.00 0 3242
06/04/2016 2291.31 1361935 -7205 3427 1477 93 1477 0 0.00 0 3427
06/05/2016 2291.20 1360697 0 3129 2588 83 2588 174 0.00 0 2955
06/06/2016 2291.04 1358895 -2364 3027 2221 102 2221 0 0.00 0 3027
06/07/2016 2290.76 1355759 -2136 3109 1640 112 1640 0 0.00 0 3109
06/08/2016 2290.41 1351842 -4364 3108 1245 112 1245 0 0.00 0 3108
06/09/2016 2290.07 1348036 0 3059 1232 92 1232 0 0.00 0 3059
06/10/2016 2289.66 1343472 -1339 3071 865 95 865 0 0.00 0 3071
06/11/2016 2289.14 1337690 0 3248 431 98 431 0 0.00 0 3248
06/12/2016 2288.67 1332488 0 3086 577 114 577 0 0.00 0 3086
06/13/2016 2288.47 1330280 -16417 2853 1834 94 1011 e 0 0.00 0 2853
06/14/2016 2287.95 1324541 -3866 2960 187 120 1010 e 0 0.00 0 2960
06/15/2016 2287.65 1321250 -1426 1978 384 65 1112 e 0 0.00 0 1978
06/16/2016 2287.38 1318289 0 2138 703 58 1112 e 0 0.00 0 2138
06/17/2016 2287.28 1317192 -1097 2193 1675 35 1112 e 0 0.23 0 2193
06/18/2016 2287.28 1317192 0 2105 2131 26 1112 e 0 0.25 0 2105
06/19/2016 2287.28 1317192 0 2096 2122 26 1112 e 0 0.00 0 2096
06/20/2016 2286.84 1312378 -4814 1999 -341 87 1469 e 0 0.00 0 1999
06/21/2016 2286.65 1310309 -2069 2101 1135 77 1135 0 0.00 0 2101
06/22/2016 2286.30 1306497 -3812 2987 1155 90 1155 0 0.00 0 2987
06/23/2016 2286.30 1306497 0 3170 3279 109 1469 e 0 0.00 0 3170
06/24/2016 2285.80 1301066 -5431 2923 306 121 -- 0 0.00 0 2923
06/25/2016 2285.80 1301066 0 2847 2965 118 -- 0 0.00 0 2847
06/26/2016 2285.80 1301066 0 2799 2907 108 -- 0 0.00 0 2799
06/27/2016 2285.80 1301066 0 2873 2985 112 -- 0 0.00 0 2873
06/28/2016 -- -- -- -- -- -- -- -- -- -- --

Later | Latest

Warning! This data is preliminary and subject to revision.

Show CLE Map | Plot CLE Data | 1 Month CLE Data | Real-Time CLE Data | CLE Info